Time;durP1;ratioP1;P1;durP2;ratioP2;P2;SDS_P1;SDS_P2;PMS_P1;PMS_P2;Temp;Humidity;BMP_temperature;BMP_pressure;BME280_temperature;BME280_humidity;BME280_pressure;Samples;Min_cycle;Max_cycle;Signal;HPM_P1;HPM_P2
2022/11/05 00:16:42;;;;;;;6.17;5.07;;;;;;;;;;5037791;28;20227;-76
2022/11/05 00:16:48;;;;;;;5.87;5.03;;;;;;;;;;5029124;28;20234;-76
2022/11/05 00:19:16;;;;;;;5.53;5.03;;;;;;;;;;5016667;28;20226;-75
2022/11/05 00:27:12;;;;;;;5.70;5.20;;;;;;;;;;5043754;28;20233;-75
2022/11/05 00:29:37;;;;;;;6.67;6.07;;;;;;;;;;5020893;28;20226;-75
2022/11/05 00:32:03;;;;;;;6.27;5.67;;;;;;;;;;5013004;28;20705;-75
2022/11/05 00:34:33;;;;;;;5.20;4.80;;;;;;;;;;5016039;28;20238;-75
2022/11/05 00:37:01;;;;;;;5.17;4.77;;;;;;;;;;5039291;28;20211;-74
2022/11/05 00:39:29;;;;;;;5.73;5.23;;;;;;;;;;5022233;28;20211;-75
2022/11/05 00:50:09;;;;;;;6.60;5.63;;;;;;;;;;5019037;28;20235;-76
2022/11/05 00:52:55;;;;;;;6.80;6.20;;;;;;;;;;5042235;28;20219;-75
2022/11/05 00:55:39;;;;;;;5.90;5.40;;;;;;;;;;5024185;28;20238;-75
2022/11/05 00:58:15;;;;;;;6.90;6.20;;;;;;;;;;5036735;28;20234;-74
2022/11/05 01:00:42;;;;;;;10.47;7.43;;;;;;;;;;5013290;23;20279;-84
2022/11/05 01:03:10;;;;;;;7.57;6.83;;;;;;;;;;4973897;28;20240;-84
2022/11/05 01:05:39;;;;;;;7.07;6.47;;;;;;;;;;4983664;28;20294;-83
2022/11/05 01:08:08;;;;;;;29.27;6.67;;;;;;;;;;4981777;28;20227;-84
2022/11/05 01:10:38;;;;;;;7.97;7.17;;;;;;;;;;4998717;28;20225;-82
2022/11/05 01:13:03;;;;;;;12.37;6.90;;;;;;;;;;4971731;28;20388;-84
2022/11/05 01:15:29;;;;;;;11.33;7.30;;;;;;;;;;4993529;28;20684;-84
2022/11/05 01:17:54;;;;;;;10.93;7.57;;;;;;;;;;4973010;28;20228;-84
2022/11/05 01:20:20;;;;;;;7.33;6.63;;;;;;;;;;4969407;28;20229;-83
2022/11/05 01:22:45;;;;;;;8.43;6.37;;;;;;;;;;4986977;28;20231;-85
2022/11/05 01:25:11;;;;;;;9.43;7.87;;;;;;;;;;5007639;28;20229;-85
2022/11/05 01:27:36;;;;;;;10.67;7.07;;;;;;;;;;4977063;28;20221;-84
2022/11/05 01:30:04;;;;;;;11.03;7.30;;;;;;;;;;4979643;28;20224;-85
2022/11/05 01:32:29;;;;;;;8.50;7.17;;;;;;;;;;4965113;28;20229;-85
2022/11/05 01:34:55;;;;;;;10.10;7.63;;;;;;;;;;4989668;28;20224;-85
2022/11/05 01:37:20;;;;;;;9.00;7.47;;;;;;;;;;4994228;28;20220;-84
2022/11/05 01:39:48;;;;;;;9.17;7.90;;;;;;;;;;4987201;28;20221;-84
2022/11/05 01:42:18;;;;;;;11.17;7.63;;;;;;;;;;4969508;28;20230;-84
2022/11/05 01:45:08;;;;;;;11.30;7.97;;;;;;;;;;4980954;28;20240;-86
2022/11/05 01:47:35;;;;;;;11.47;8.00;;;;;;;;;;4999112;28;20830;-85
2022/11/05 01:50:11;;;;;;;8.93;7.60;;;;;;;;;;4983278;28;20289;-85
2022/11/05 01:52:38;;;;;;;10.57;8.87;;;;;;;;;;4974010;28;20229;-85
2022/11/05 01:55:04;;;;;;;11.60;8.30;;;;;;;;;;4963229;28;20921;-84
2022/11/05 01:57:32;;;;;;;9.87;8.87;;;;;;;;;;4980866;28;20221;-82
2022/11/05 01:59:58;;;;;;;9.50;7.90;;;;;;;;;;4972423;28;20364;-85
2022/11/05 02:02:24;;;;;;;22.90;8.60;;;;;;;;;;4991161;28;20224;-85
2022/11/05 02:05:02;;;;;;;9.20;8.30;;;;;;;;;;4979843;28;20231;-84
2022/11/05 02:07:28;;;;;;;9.80;8.63;;;;;;;;;;4981115;28;20221;-82
2022/11/05 02:09:58;;;;;;;26.73;9.40;;;;;;;;;;4979351;28;20247;-82
2022/11/05 02:12:27;;;;;;;14.17;9.17;;;;;;;;;;4984002;28;20224;-82
2022/11/05 02:14:53;;;;;;;19.83;9.87;;;;;;;;;;4986532;28;20249;-84
2022/11/05 02:17:29;;;;;;;42.03;10.60;;;;;;;;;;4990368;28;20217;-85
2022/11/05 02:20:09;;;;;;;17.23;10.30;;;;;;;;;;4991159;28;20621;-86
2022/11/05 02:23:12;;;;;;;12.37;9.93;;;;;;;;;;4981491;28;20228;-85
2022/11/05 02:25:52;;;;;;;16.50;10.13;;;;;;;;;;4990152;28;20221;-84
2022/11/05 02:28:47;;;;;;;14.40;9.73;;;;;;;;;;4968148;28;20241;-84
2022/11/05 02:31:39;;;;;;;35.70;10.23;;;;;;;;;;4979964;28;20229;-85
2022/11/05 02:34:31;;;;;;;18.50;11.30;;;;;;;;;;4991257;28;20255;-85
2022/11/05 02:37:03;;;;;;;29.97;10.60;;;;;;;;;;4976025;28;20221;-85
2022/11/05 02:39:38;;;;;;;17.97;10.93;;;;;;;;;;4977076;28;20265;-85
2022/11/05 02:42:12;;;;;;;21.60;10.17;;;;;;;;;;4983896;28;20368;-84
2022/11/05 02:44:50;;;;;;;28.47;11.40;;;;;;;;;;4995372;28;20646;-84
2022/11/05 02:47:34;;;;;;;13.47;10.33;;;;;;;;;;4972924;28;20829;-84
2022/11/05 02:50:15;;;;;;;30.63;9.37;;;;;;;;;;4998900;28;20312;-84
2022/11/05 02:53:01;;;;;;;27.20;9.60;;;;;;;;;;4977186;28;20229;-84
2022/11/05 02:55:36;;;;;;;18.13;8.47;;;;;;;;;;4986377;28;20220;-82
2022/11/05 02:58:04;;;;;;;18.13;8.37;;;;;;;;;;5000354;28;20239;-84
2022/11/05 03:00:44;;;;;;;13.37;7.53;;;;;;;;;;4966639;28;20291;-85
2022/11/05 03:03:21;;;;;;;16.03;7.50;;;;;;;;;;4975217;28;20284;-83
2022/11/05 03:06:25;;;;;;;14.77;8.17;;;;;;;;;;4992764;28;20615;-84
2022/11/05 03:09:08;;;;;;;8.27;7.47;;;;;;;;;;4966934;28;20221;-86
2022/11/05 03:11:58;;;;;;;18.17;7.90;;;;;;;;;;5012706;28;20278;-85
2022/11/05 03:14:40;;;;;;;11.77;6.80;;;;;;;;;;4970985;28;20351;-86
2022/11/05 03:17:06;;;;;;;11.10;6.47;;;;;;;;;;4978718;28;20256;-85
2022/11/05 03:20:03;;;;;;;12.07;6.47;;;;;;;;;;4995556;28;20231;-84
2022/11/05 03:22:34;;;;;;;9.67;5.80;;;;;;;;;;4998615;28;20811;-85
2022/11/05 03:25:02;;;;;;;6.73;5.43;;;;;;;;;;4961456;28;20279;-83
2022/11/05 03:27:31;;;;;;;10.70;5.37;;;;;;;;;;4982972;28;20214;-85
2022/11/05 03:30:02;;;;;;;10.67;5.77;;;;;;;;;;4990729;28;20315;-84
2022/11/05 03:32:29;;;;;;;10.23;6.20;;;;;;;;;;4978089;28;20236;-85
2022/11/05 03:35:00;;;;;;;20.80;6.63;;;;;;;;;;4963064;28;20224;-85
2022/11/05 03:37:32;;;;;;;13.17;6.23;;;;;;;;;;4979551;28;20303;-84
2022/11/05 03:40:02;;;;;;;13.50;6.77;;;;;;;;;;4984537;28;20231;-85
2022/11/05 03:42:31;;;;;;;11.47;6.47;;;;;;;;;;4980111;28;20227;-83
2022/11/05 03:44:58;;;;;;;15.77;5.90;;;;;;;;;;5016543;28;20308;-86
2022/11/05 03:47:32;;;;;;;17.67;6.43;;;;;;;;;;4979913;28;20270;-84
2022/11/05 03:50:18;;;;;;;12.73;5.10;;;;;;;;;;4980131;28;20220;-86
2022/11/05 03:52:53;;;;;;;14.93;5.00;;;;;;;;;;4978866;28;20251;-85
2022/11/05 03:55:21;;;;;;;20.33;5.33;;;;;;;;;;4976019;28;20289;-86
2022/11/05 03:57:52;;;;;;;10.67;6.50;;;;;;;;;;4976253;28;20709;-86
2022/11/05 04:00:22;;;;;;;17.00;6.00;;;;;;;;;;4992492;28;20225;-86
2022/11/05 04:02:48;;;;;;;20.07;6.10;;;;;;;;;;4980010;28;20225;-84
2022/11/05 04:05:28;;;;;;;11.60;7.77;;;;;;;;;;4989220;28;20275;-84
2022/11/05 04:13:25;;;;;;;12.00;7.40;;;;;;;;;;4981278;28;20237;-86
2022/11/05 04:18:35;;;;;;;9.40;6.97;;;;;;;;;;4988763;28;20224;-86
2022/11/05 04:27:10;;;;;;;15.27;6.27;;;;;;;;;;4991695;28;20235;-86
2022/11/05 04:32:22;;;;;;;6.57;5.97;;;;;;;;;;4972968;28;20228;-85
2022/11/05 04:34:50;;;;;;;8.17;6.30;;;;;;;;;;4966792;28;20275;-86
2022/11/05 04:37:16;;;;;;;7.27;6.37;;;;;;;;;;4947073;28;20224;-87
2022/11/05 04:39:46;;;;;;;7.00;6.30;;;;;;;;;;4967477;28;20228;-85
2022/11/05 04:42:11;;;;;;;10.40;6.17;;;;;;;;;;4982082;28;20221;-87
2022/11/05 04:44:39;;;;;;;11.13;6.00;;;;;;;;;;4983140;28;20221;-87
2022/11/05 04:47:05;;;;;;;6.90;6.23;;;;;;;;;;4978551;28;20231;-85
2022/11/05 04:49:33;;;;;;;6.63;5.73;;;;;;;;;;4979190;28;20213;-87
2022/11/05 04:52:01;;;;;;;11.67;5.90;;;;;;;;;;4996988;28;20255;-82
2022/11/05 04:54:31;;;;;;;9.30;6.50;;;;;;;;;;4981581;28;20300;-82
2022/11/05 04:56:57;;;;;;;8.43;5.60;;;;;;;;;;5003820;28;20209;-81
2022/11/05 04:59:22;;;;;;;7.33;6.57;;;;;;;;;;5006126;28;20348;-82
2022/11/05 05:01:51;;;;;;;7.57;6.83;;;;;;;;;;5022591;28;20523;-82
2022/11/05 05:04:17;;;;;;;7.10;6.23;;;;;;;;;;5010599;28;20260;-82
2022/11/05 05:06:42;;;;;;;6.67;6.07;;;;;;;;;;4992732;28;20272;-83
2022/11/05 05:09:10;;;;;;;7.83;6.57;;;;;;;;;;4991500;28;20280;-82
2022/11/05 05:11:39;;;;;;;6.83;6.23;;;;;;;;;;5009562;28;20264;-81
2022/11/05 05:14:05;;;;;;;7.33;6.67;;;;;;;;;;5007500;28;20249;-83
2022/11/05 05:16:30;;;;;;;6.53;5.93;;;;;;;;;;5000033;28;20226;-83
2022/11/05 05:18:56;;;;;;;6.53;5.93;;;;;;;;;;4983325;28;20216;-82
2022/11/05 05:24:19;;;;;;;6.60;5.77;;;;;;;;;;4979651;28;20288;-82
2022/11/05 05:26:47;;;;;;;6.77;6.17;;;;;;;;;;4994995;28;20220;-82
2022/11/05 05:29:34;;;;;;;8.07;5.70;;;;;;;;;;5004054;28;20244;-80
2022/11/05 05:32:00;;;;;;;8.23;6.80;;;;;;;;;;5007222;28;20588;-81
2022/11/05 05:34:25;;;;;;;9.10;7.87;;;;;;;;;;5016816;28;20328;-82
2022/11/05 05:36:53;;;;;;;7.77;6.77;;;;;;;;;;4983931;28;20221;-81
2022/11/05 05:39:18;;;;;;;7.77;6.73;;;;;;;;;;4974031;28;20292;-80
2022/11/05 05:41:49;;;;;;;9.13;7.47;;;;;;;;;;5001457;28;20323;-80
2022/11/05 05:44:14;;;;;;;8.20;7.00;;;;;;;;;;5003253;28;20232;-81
2022/11/05 05:46:44;;;;;;;9.70;6.50;;;;;;;;;;5021863;28;20227;-81
2022/11/05 05:49:10;;;;;;;8.73;6.60;;;;;;;;;;4991546;28;20235;-81
2022/11/05 05:51:35;;;;;;;9.87;7.17;;;;;;;;;;4974288;28;20225;-80
2022/11/05 05:54:01;;;;;;;9.80;7.17;;;;;;;;;;4991081;28;20228;-79
2022/11/05 05:56:26;;;;;;;8.47;6.97;;;;;;;;;;4994901;28;20228;-79
2022/11/05 05:58:53;;;;;;;8.77;7.73;;;;;;;;;;5008694;28;20217;-82
2022/11/05 06:01:19;;;;;;;8.83;7.17;;;;;;;;;;5001800;28;20295;-81
2022/11/05 06:03:48;;;;;;;8.97;7.40;;;;;;;;;;5002932;28;20229;-81
2022/11/05 06:06:18;;;;;;;9.70;7.27;;;;;;;;;;4993483;28;20223;-81
2022/11/05 06:08:43;;;;;;;10.07;7.10;;;;;;;;;;4975192;28;20221;-81
2022/11/05 06:11:09;;;;;;;10.57;8.10;;;;;;;;;;5000059;28;20286;-80
2022/11/05 06:13:37;;;;;;;18.60;7.93;;;;;;;;;;4976186;28;20221;-81
2022/11/05 06:16:06;;;;;;;13.67;8.07;;;;;;;;;;4994506;28;20237;-82
2022/11/05 06:18:36;;;;;;;16.80;8.33;;;;;;;;;;4991657;28;20213;-81
2022/11/05 06:21:05;;;;;;;10.90;8.23;;;;;;;;;;5002076;28;20217;-83
2022/11/05 06:23:31;;;;;;;22.30;8.60;;;;;;;;;;5016458;28;20268;-83
2022/11/05 06:26:04;;;;;;;10.07;7.63;;;;;;;;;;4990242;28;20283;-82
2022/11/05 06:28:32;;;;;;;15.30;8.57;;;;;;;;;;5015275;28;20216;-81
2022/11/05 06:30:58;;;;;;;15.53;8.10;;;;;;;;;;4992170;28;20748;-82
2022/11/05 06:33:26;;;;;;;12.03;8.00;;;;;;;;;;4992402;28;20228;-81
2022/11/05 06:35:52;;;;;;;10.03;7.87;;;;;;;;;;4964007;28;20241;-82
2022/11/05 06:38:17;;;;;;;9.87;7.73;;;;;;;;;;4993556;28;20213;-82
2022/11/05 06:40:43;;;;;;;8.50;7.60;;;;;;;;;;4976643;28;20251;-82
2022/11/05 06:43:08;;;;;;;8.80;7.93;;;;;;;;;;4984430;28;20609;-81
2022/11/05 06:45:34;;;;;;;8.70;7.37;;;;;;;;;;5007846;28;20224;-82
2022/11/05 06:47:59;;;;;;;9.97;8.20;;;;;;;;;;5006411;28;20635;-81
2022/11/05 06:50:25;;;;;;;8.30;7.47;;;;;;;;;;4974210;28;20324;-82
2022/11/05 06:52:54;;;;;;;8.63;7.73;;;;;;;;;;4994071;28;20233;-82
2022/11/05 06:55:20;;;;;;;13.77;6.97;;;;;;;;;;4990304;28;20221;-81
2022/11/05 06:57:45;;;;;;;8.07;7.23;;;;;;;;;;4975204;28;20720;-83
2022/11/05 07:00:13;;;;;;;8.53;7.20;;;;;;;;;;5000340;28;20776;-82
2022/11/05 07:02:39;;;;;;;7.93;6.90;;;;;;;;;;5001904;28;20503;-82
2022/11/05 07:05:09;;;;;;;8.27;7.47;;;;;;;;;;5001350;28;20233;-83
2022/11/05 07:07:39;;;;;;;9.07;7.43;;;;;;;;;;4989682;28;20220;-83
2022/11/05 07:10:05;;;;;;;7.77;7.07;;;;;;;;;;4979848;28;20239;-83
2022/11/05 07:12:33;;;;;;;9.03;7.20;;;;;;;;;;4983480;28;20217;-83
2022/11/05 07:14:59;;;;;;;8.50;7.70;;;;;;;;;;4985939;28;20254;-81
2022/11/05 07:17:24;;;;;;;8.30;7.30;;;;;;;;;;4978397;28;20288;-83
2022/11/05 07:19:50;;;;;;;9.03;7.67;;;;;;;;;;4987310;28;20232;-81
2022/11/05 07:22:15;;;;;;;8.87;7.97;;;;;;;;;;4981133;28;20244;-82
2022/11/05 07:24:46;;;;;;;7.53;6.83;;;;;;;;;;4972135;28;20666;-82
2022/11/05 07:27:15;;;;;;;7.70;6.87;;;;;;;;;;4968859;28;20217;-81
2022/11/05 07:29:40;;;;;;;9.53;7.87;;;;;;;;;;4977966;28;20248;-82
2022/11/05 07:32:08;;;;;;;10.20;8.30;;;;;;;;;;4975465;28;20675;-82
2022/11/05 07:34:34;;;;;;;9.73;8.73;;;;;;;;;;4961285;28;20233;-81
2022/11/05 07:36:59;;;;;;;21.10;17.93;;;;;;;;;;4960349;28;20296;-81
2022/11/05 07:39:25;;;;;;;13.87;12.47;;;;;;;;;;4965208;28;20319;-81
2022/11/05 07:41:53;;;;;;;12.80;11.47;;;;;;;;;;4950359;28;20223;-82
2022/11/05 07:44:20;;;;;;;17.70;10.73;;;;;;;;;;4979017;28;20233;-82
2022/11/05 07:46:48;;;;;;;11.00;9.90;;;;;;;;;;5013422;28;20243;-80
2022/11/05 07:49:13;;;;;;;12.63;11.33;;;;;;;;;;4983155;28;20680;-82
2022/11/05 07:51:40;;;;;;;14.07;12.70;;;;;;;;;;4991955;28;20228;-83
2022/11/05 07:54:06;;;;;;;13.20;11.90;;;;;;;;;;4993073;28;20221;-82
2022/11/05 07:56:32;;;;;;;13.27;11.20;;;;;;;;;;4966902;28;20231;-81
2022/11/05 07:58:57;;;;;;;14.27;11.13;;;;;;;;;;4997479;28;20231;-81
2022/11/05 08:01:23;;;;;;;11.10;9.83;;;;;;;;;;4996425;28;20632;-80
2022/11/05 08:03:49;;;;;;;12.70;11.37;;;;;;;;;;4983620;28;20705;-82
2022/11/05 08:06:14;;;;;;;14.97;10.43;;;;;;;;;;4983845;28;20905;-81
2022/11/05 08:08:40;;;;;;;12.27;10.93;;;;;;;;;;5008996;28;20255;-79
2022/11/05 08:11:06;;;;;;;13.73;11.13;;;;;;;;;;5006093;28;20812;-80
2022/11/05 08:13:32;;;;;;;14.57;10.33;;;;;;;;;;5020076;28;20212;-79
2022/11/05 08:15:58;;;;;;;11.33;10.20;;;;;;;;;;5001452;28;20317;-81
2022/11/05 08:18:30;;;;;;;12.70;11.07;;;;;;;;;;4981289;28;20225;-81
2022/11/05 08:20:58;;;;;;;11.57;10.37;;;;;;;;;;5016941;28;20216;-82
2022/11/05 08:23:27;;;;;;;12.00;10.57;;;;;;;;;;4991103;28;20243;-80
2022/11/05 08:25:53;;;;;;;14.07;10.10;;;;;;;;;;4988603;28;20216;-82
2022/11/05 08:28:20;;;;;;;10.47;9.47;;;;;;;;;;4973870;28;20267;-81
2022/11/05 08:30:51;;;;;;;10.33;9.33;;;;;;;;;;4983659;28;20228;-81
2022/11/05 08:33:17;;;;;;;11.67;9.87;;;;;;;;;;4988866;28;20605;-81
2022/11/05 08:35:42;;;;;;;12.53;10.77;;;;;;;;;;4989207;28;20212;-81
2022/11/05 08:38:09;;;;;;;12.77;11.50;;;;;;;;;;4994284;28;20232;-81
2022/11/05 08:40:35;;;;;;;11.67;10.43;;;;;;;;;;4992146;28;20270;-82
2022/11/05 08:43:02;;;;;;;11.50;10.40;;;;;;;;;;5000494;28;20232;-81
2022/11/05 08:45:30;;;;;;;14.73;11.77;;;;;;;;;;4970510;28;20967;-80
2022/11/05 08:48:02;;;;;;;13.80;12.23;;;;;;;;;;4988160;28;20232;-79
2022/11/05 08:50:29;;;;;;;11.70;10.60;;;;;;;;;;5000560;28;20225;-80
2022/11/05 08:52:57;;;;;;;12.63;11.33;;;;;;;;;;4985504;28;20239;-80
2022/11/05 08:55:23;;;;;;;12.47;11.33;;;;;;;;;;4983739;28;20229;-80
2022/11/05 08:57:56;;;;;;;12.33;11.13;;;;;;;;;;4987694;28;20221;-82
2022/11/05 09:00:22;;;;;;;14.73;11.20;;;;;;;;;;4981569;28;20221;-82
2022/11/05 09:02:50;;;;;;;12.67;11.37;;;;;;;;;;4966665;28;20279;-81
2022/11/05 09:05:15;;;;;;;12.97;11.23;;;;;;;;;;4983811;28;20237;-82
2022/11/05 09:07:43;;;;;;;26.40;23.53;;;;;;;;;;5011115;28;20221;-81
2022/11/05 09:10:09;;;;;;;14.10;12.70;;;;;;;;;;4979688;28;20734;-82
2022/11/05 09:12:34;;;;;;;12.30;11.00;;;;;;;;;;5000315;28;20670;-82
2022/11/05 09:15:00;;;;;;;15.40;13.03;;;;;;;;;;5000509;28;20700;-81
2022/11/05 09:17:28;;;;;;;13.20;11.80;;;;;;;;;;4995079;28;20239;-82
2022/11/05 09:19:53;;;;;;;13.53;10.37;;;;;;;;;;4999017;28;20754;-82
2022/11/05 09:22:19;;;;;;;12.17;10.90;;;;;;;;;;5015998;28;20225;-83
2022/11/05 09:24:44;;;;;;;13.43;10.73;;;;;;;;;;5017544;28;20580;-82
2022/11/05 09:27:13;;;;;;;11.17;9.97;;;;;;;;;;4982626;28;20231;-81
2022/11/05 09:29:39;;;;;;;11.27;10.03;;;;;;;;;;4995491;28;20229;-80
2022/11/05 09:32:05;;;;;;;12.07;9.40;;;;;;;;;;5007511;28;20228;-80
2022/11/05 09:34:30;;;;;;;9.13;8.27;;;;;;;;;;4997001;28;20275;-83
2022/11/05 09:36:56;;;;;;;8.07;7.27;;;;;;;;;;4988295;28;20251;-80
2022/11/05 09:39:21;;;;;;;9.60;8.00;;;;;;;;;;5000969;28;20243;-82
2022/11/05 09:41:50;;;;;;;10.97;8.30;;;;;;;;;;4995422;28;20657;-80
2022/11/05 09:44:21;;;;;;;8.57;7.77;;;;;;;;;;4987846;28;20222;-80
2022/11/05 09:46:52;;;;;;;8.93;7.57;;;;;;;;;;5011116;28;20239;-82
2022/11/05 09:49:24;;;;;;;11.23;7.20;;;;;;;;;;4986943;28;20229;-81
2022/11/05 09:51:54;;;;;;;8.63;6.97;;;;;;;;;;4986173;28;20725;-82
2022/11/05 09:54:25;;;;;;;7.37;6.57;;;;;;;;;;4984249;28;20233;-81
2022/11/05 09:56:51;;;;;;;6.67;5.97;;;;;;;;;;5000112;28;20228;-83
2022/11/05 09:59:20;;;;;;;6.37;5.73;;;;;;;;;;4985637;28;20224;-82
2022/11/05 10:01:46;;;;;;;6.70;6.03;;;;;;;;;;5004552;28;20229;-83
2022/11/05 10:04:22;;;;;;;7.83;5.63;;;;;;;;;;4973042;28;20233;-81
2022/11/05 10:06:53;;;;;;;7.07;5.50;;;;;;;;;;4976104;28;20240;-82
2022/11/05 10:09:23;;;;;;;7.60;5.53;;;;;;;;;;4996676;28;20233;-81
2022/11/05 10:11:52;;;;;;;5.70;5.00;;;;;;;;;;4981267;28;20217;-82
2022/11/05 10:14:29;;;;;;;5.23;4.73;;;;;;;;;;4979682;28;20229;-80
2022/11/05 10:16:59;;;;;;;6.20;4.83;;;;;;;;;;4994917;28;20228;-81
2022/11/05 10:19:28;;;;;;;5.60;4.57;;;;;;;;;;5008869;28;20216;-81
2022/11/05 10:21:59;;;;;;;6.53;4.40;;;;;;;;;;5006049;28;20965;-83
2022/11/05 10:24:26;;;;;;;6.63;4.53;;;;;;;;;;4990997;28;20449;-83
2022/11/05 10:26:54;;;;;;;8.33;4.10;;;;;;;;;;4987955;28;20217;-82
2022/11/05 10:29:28;;;;;;;5.47;4.47;;;;;;;;;;4989834;28;20287;-82
2022/11/05 10:31:53;;;;;;;4.70;4.23;;;;;;;;;;5006190;28;20598;-80
2022/11/05 10:34:19;;;;;;;7.47;4.50;;;;;;;;;;4990932;28;20233;-83
2022/11/05 10:36:50;;;;;;;7.43;3.97;;;;;;;;;;4989708;28;20352;-79
2022/11/05 10:39:17;;;;;;;6.07;3.73;;;;;;;;;;4964149;28;20221;-81
2022/11/05 10:42:08;;;;;;;5.53;3.90;;;;;;;;;;4992769;28;20229;-81
2022/11/05 10:44:56;;;;;;;4.80;4.17;;;;;;;;;;5025066;28;20229;-82
2022/11/05 10:47:31;;;;;;;5.10;4.10;;;;;;;;;;4982891;28;20327;-80
2022/11/05 10:49:58;;;;;;;4.80;3.67;;;;;;;;;;5003670;28;20514;-80
2022/11/05 10:52:35;;;;;;;4.73;4.13;;;;;;;;;;4998274;28;20223;-84
2022/11/05 10:55:25;;;;;;;6.90;3.50;;;;;;;;;;4998027;28;20294;-81
2022/11/05 10:57:50;;;;;;;4.80;3.40;;;;;;;;;;4974218;28;20719;-83
2022/11/05 11:00:19;;;;;;;5.70;3.57;;;;;;;;;;4973012;28;20232;-84
2022/11/05 11:02:54;;;;;;;3.73;2.90;;;;;;;;;;5010276;28;20232;-84
2022/11/05 11:05:22;;;;;;;4.23;3.33;;;;;;;;;;4997782;28;20212;-82
2022/11/05 11:07:56;;;;;;;5.00;3.70;;;;;;;;;;4966498;28;20239;-83
2022/11/05 11:10:26;;;;;;;12.17;7.37;;;;;;;;;;4999202;28;20595;-83
2022/11/05 11:12:52;;;;;;;8.93;6.20;;;;;;;;;;4984716;28;20225;-83
2022/11/05 11:15:23;;;;;;;7.87;5.67;;;;;;;;;;4974403;28;20710;-86
2022/11/05 11:17:49;;;;;;;5.47;3.70;;;;;;;;;;4997121;28;20225;-82
2022/11/05 11:20:22;;;;;;;5.73;3.57;;;;;;;;;;4990128;28;20769;-83
2022/11/05 11:23:00;;;;;;;6.80;3.90;;;;;;;;;;4999792;28;20233;-81
2022/11/05 11:25:50;;;;;;;12.30;3.43;;;;;;;;;;4969392;28;20670;-83
2022/11/05 11:28:21;;;;;;;6.33;3.27;;;;;;;;;;4993309;28;20316;-82
2022/11/05 11:31:03;;;;;;;5.33;3.67;;;;;;;;;;4996728;28;20248;-81
2022/11/05 11:33:29;;;;;;;5.40;3.90;;;;;;;;;;4985672;28;20229;-82
2022/11/05 11:35:56;;;;;;;6.07;4.37;;;;;;;;;;4995791;28;20243;-84
2022/11/05 11:38:23;;;;;;;6.63;4.20;;;;;;;;;;4997243;28;20225;-80
2022/11/05 11:40:48;;;;;;;4.93;4.03;;;;;;;;;;4974306;28;20722;-80
2022/11/05 11:43:33;;;;;;;5.13;2.70;;;;;;;;;;4974158;28;20224;-80
2022/11/05 11:45:59;;;;;;;4.93;3.70;;;;;;;;;;4994768;28;20244;-84
2022/11/05 11:48:27;;;;;;;6.27;2.80;;;;;;;;;;5001459;28;20303;-81
2022/11/05 11:50:52;;;;;;;3.53;3.00;;;;;;;;;;4966588;28;20316;-84
2022/11/05 11:53:28;;;;;;;6.93;4.13;;;;;;;;;;4990942;28;20256;-80
2022/11/05 11:55:53;;;;;;;7.33;3.17;;;;;;;;;;4992406;28;20270;-81
2022/11/05 11:58:19;;;;;;;5.40;3.20;;;;;;;;;;5007929;28;20228;-81
2022/11/05 12:00:51;;;;;;;6.30;3.63;;;;;;;;;;4987300;28;20744;-82
2022/11/05 12:03:35;;;;;;;2.87;2.60;;;;;;;;;;5000977;28;20737;-84
2022/11/05 12:06:26;;;;;;;4.73;3.10;;;;;;;;;;4993055;28;20221;-84
2022/11/05 12:08:58;;;;;;;3.53;2.77;;;;;;;;;;4978059;28;20228;-82
2022/11/05 12:12:03;;;;;;;4.00;2.43;;;;;;;;;;5003293;28;20236;-83
2022/11/05 12:14:47;;;;;;;3.63;2.70;;;;;;;;;;4991819;28;20618;-82
2022/11/05 12:17:35;;;;;;;2.33;2.10;;;;;;;;;;5017834;28;20232;-82
2022/11/05 12:20:00;;;;;;;3.20;2.00;;;;;;;;;;5015841;28;20601;-83
2022/11/05 12:22:47;;;;;;;3.33;2.67;;;;;;;;;;4997338;28;20235;-80
2022/11/05 12:25:15;;;;;;;2.97;2.20;;;;;;;;;;4996086;28;20217;-83
2022/11/05 12:27:52;;;;;;;3.30;2.70;;;;;;;;;;5009638;28;20236;-80
2022/11/05 12:30:19;;;;;;;3.07;2.07;;;;;;;;;;5006366;28;20228;-82
2022/11/05 12:33:03;;;;;;;2.87;2.40;;;;;;;;;;4964480;28;20262;-80
2022/11/05 12:35:43;;;;;;;3.23;2.57;;;;;;;;;;5019210;28;20228;-79
2022/11/05 12:38:36;;;;;;;5.10;2.13;;;;;;;;;;5018757;28;20705;-80
2022/11/05 12:41:01;;;;;;;3.57;2.60;;;;;;;;;;4992785;28;20216;-80
2022/11/05 12:44:05;;;;;;;2.93;2.50;;;;;;;;;;4982739;28;20220;-81
2022/11/05 12:46:46;;;;;;;3.07;2.07;;;;;;;;;;4962771;28;20216;-83
2022/11/05 12:49:36;;;;;;;2.83;2.63;;;;;;;;;;4997352;28;20704;-83
2022/11/05 12:52:29;;;;;;;3.17;2.57;;;;;;;;;;4995160;28;20254;-84
2022/11/05 12:55:04;;;;;;;4.03;2.70;;;;;;;;;;4975064;28;21040;-86
2022/11/05 12:57:31;;;;;;;3.37;2.00;;;;;;;;;;4981908;28;20282;-84
2022/11/05 13:00:17;;;;;;;2.90;2.30;;;;;;;;;;4986644;28;20224;-84
2022/11/05 13:03:04;;;;;;;2.53;2.20;;;;;;;;;;4983395;28;20230;-85
2022/11/05 13:05:41;;;;;;;3.30;2.30;;;;;;;;;;4979763;28;20292;-82
2022/11/05 13:08:13;;;;;;;2.50;2.20;;;;;;;;;;4996658;28;20231;-83
2022/11/05 13:11:18;;;;;;;3.40;2.40;;;;;;;;;;4969365;28;20243;-82
2022/11/05 13:13:55;;;;;;;2.63;2.43;;;;;;;;;;5012762;28;20233;-84
2022/11/05 13:16:33;;;;;;;3.30;2.70;;;;;;;;;;4992776;28;20232;-83
2022/11/05 13:19:04;;;;;;;3.23;2.50;;;;;;;;;;4994813;28;20228;-82
2022/11/05 13:21:30;;;;;;;4.37;3.00;;;;;;;;;;4981913;28;20221;-82
2022/11/05 13:24:12;;;;;;;4.23;3.70;;;;;;;;;;5002584;28;20752;-84
2022/11/05 13:26:58;;;;;;;4.50;3.33;;;;;;;;;;4989159;28;20221;-84
2022/11/05 13:29:35;;;;;;;3.30;3.00;;;;;;;;;;5001175;28;20233;-81
2022/11/05 13:32:12;;;;;;;3.87;2.93;;;;;;;;;;4999163;28;20228;-83
2022/11/05 13:34:38;;;;;;;4.77;3.00;;;;;;;;;;4970151;28;20320;-83
2022/11/05 13:39:51;;;;;;;4.23;3.03;;;;;;;;;;5001466;28;20232;-83
2022/11/05 13:42:54;;;;;;;4.50;3.00;;;;;;;;;;4994160;28;20586;-81
2022/11/05 13:45:26;;;;;;;4.67;3.50;;;;;;;;;;4999594;28;20288;-84
2022/11/05 13:48:10;;;;;;;6.83;4.00;;;;;;;;;;5032848;28;20231;-84
2022/11/05 13:50:53;;;;;;;5.53;3.40;;;;;;;;;;4993218;28;20233;-85
2022/11/05 13:53:24;;;;;;;5.17;3.23;;;;;;;;;;5019514;28;20229;-83
2022/11/05 13:56:20;;;;;;;6.10;3.63;;;;;;;;;;5013964;28;20217;-84
2022/11/05 13:58:51;;;;;;;4.90;3.33;;;;;;;;;;5024060;28;20670;-83
2022/11/05 14:01:56;;;;;;;6.37;4.10;;;;;;;;;;4979047;28;20286;-81
2022/11/05 14:04:42;;;;;;;4.67;3.93;;;;;;;;;;4982310;28;20220;-80
2022/11/05 14:07:44;;;;;;;3.87;3.50;;;;;;;;;;4983632;28;20705;-81
2022/11/05 14:10:38;;;;;;;6.70;4.07;;;;;;;;;;5018434;28;20240;-82
2022/11/05 14:13:18;;;;;;;3.60;3.30;;;;;;;;;;5013212;28;20765;-84
2022/11/05 14:15:55;;;;;;;4.50;3.37;;;;;;;;;;4999110;28;20224;-81
2022/11/05 14:18:24;;;;;;;7.27;3.77;;;;;;;;;;4985674;28;20235;-81
2022/11/05 14:21:00;;;;;;;5.30;4.80;;;;;;;;;;5004696;28;20220;-79
2022/11/05 14:23:38;;;;;;;5.03;3.93;;;;;;;;;;4995703;28;20232;-81
2022/11/05 14:26:14;;;;;;;6.57;4.40;;;;;;;;;;4997033;28;20252;-81
2022/11/05 14:28:46;;;;;;;4.17;3.77;;;;;;;;;;4996493;28;20228;-82
2022/11/05 14:31:18;;;;;;;4.27;3.87;;;;;;;;;;4980067;28;20241;-80
2022/11/05 14:34:09;;;;;;;6.47;3.80;;;;;;;;;;5015103;28;20232;-81
2022/11/05 14:36:37;;;;;;;6.53;4.30;;;;;;;;;;5012500;28;20245;-79
2022/11/05 14:39:22;;;;;;;5.13;3.90;;;;;;;;;;4997695;28;20234;-81
2022/11/05 14:42:15;;;;;;;5.77;4.10;;;;;;;;;;4998125;28;20732;-83
2022/11/05 14:45:02;;;;;;;5.40;4.90;;;;;;;;;;5012373;28;20228;-81
2022/11/05 14:47:36;;;;;;;7.80;7.00;;;;;;;;;;5001334;28;21043;-80
2022/11/05 14:50:25;;;;;;;8.87;6.97;;;;;;;;;;4982264;28;20231;-82
2022/11/05 14:52:58;;;;;;;9.33;7.63;;;;;;;;;;4984241;28;20220;-82
2022/11/05 14:55:37;;;;;;;7.17;6.57;;;;;;;;;;4989701;28;20251;-82
2022/11/05 14:58:23;;;;;;;7.10;5.40;;;;;;;;;;4965874;28;20238;-79
2022/11/05 15:00:49;;;;;;;6.20;4.70;;;;;;;;;;4997498;28;20231;-82
2022/11/05 15:03:31;;;;;;;5.60;5.00;;;;;;;;;;4968149;28;20236;-82
2022/11/05 15:06:25;;;;;;;5.73;5.20;;;;;;;;;;5003140;28;20727;-80
2022/11/05 15:09:10;;;;;;;6.60;5.90;;;;;;;;;;4993659;28;20228;-80
2022/11/05 15:12:01;;;;;;;7.87;7.10;;;;;;;;;;5008295;28;20229;-80
2022/11/05 15:14:41;;;;;;;7.30;6.23;;;;;;;;;;5007597;28;20236;-80
2022/11/05 15:17:43;;;;;;;6.23;5.37;;;;;;;;;;5000780;28;20243;-81
2022/11/05 15:20:10;;;;;;;6.97;5.73;;;;;;;;;;5000065;28;20225;-81
2022/11/05 15:22:43;;;;;;;5.57;5.00;;;;;;;;;;4992207;28;20839;-81
2022/11/05 15:25:26;;;;;;;5.77;5.20;;;;;;;;;;4994438;28;20228;-80
2022/11/05 15:27:54;;;;;;;7.53;4.97;;;;;;;;;;4990117;28;20220;-79
2022/11/05 15:30:21;;;;;;;7.23;5.43;;;;;;;;;;5004526;28;20233;-79
2022/11/05 15:32:49;;;;;;;6.63;4.50;;;;;;;;;;4978986;28;20941;-80
2022/11/05 15:35:23;;;;;;;8.73;5.63;;;;;;;;;;5006746;28;20220;-79
2022/11/05 15:37:49;;;;;;;6.17;5.00;;;;;;;;;;5022420;28;20366;-79
2022/11/05 15:40:30;;;;;;;5.93;5.13;;;;;;;;;;5007281;28;20300;-79
2022/11/05 15:43:16;;;;;;;6.83;5.70;;;;;;;;;;4997159;28;20757;-80
2022/11/05 15:45:42;;;;;;;12.37;9.37;;;;;;;;;;5009000;28;20212;-80
2022/11/05 15:48:17;;;;;;;8.70;5.97;;;;;;;;;;5000379;28;20215;-80
2022/11/05 15:50:42;;;;;;;8.33;7.10;;;;;;;;;;4995858;28;20233;-79
2022/11/05 15:53:25;;;;;;;7.97;6.20;;;;;;;;;;4988382;28;20782;-80
2022/11/05 15:55:53;;;;;;;7.43;6.73;;;;;;;;;;5003140;28;20217;-80